utilisation pie
utilisation bar
humidity graph
temperature graph
Station id: aae83c for 2 days

start:   stop:  

day time in temp out temp in RH out RH H quota rule action
2021-12-04 00:05:15 12.0 -4.7 44 90 64 g 0
2021-12-04 00:35:27 11.7 -4.7 47 89 61 g 0
2021-12-04 01:05:39 11.3 -4.8 49 89 59 g 0
2021-12-04 01:35:51 10.8 -5.1 51 89 57 t
1
2021-12-04 02:06:04 10.0 -5.7 50 88 58 t
1
2021-12-04 02:36:45 9.4 -6.3 50 88 58 t
1
2021-12-04 03:06:57 8.8 -6.9 50 88 57 g 0
2021-12-04 03:37:09 8.8 -7.2 52 88 53 t
1
2021-12-04 04:07:21 8.1 -7.1 51 89 58 t
1
2021-12-04 04:37:40 7.7 -6.8 50 89 63 g 0
2021-12-04 05:08:25 8.1 -6.6 52 89 59 t
1
2021-12-04 05:38:37 8.0 -6.9 51 89 60 t
1
2021-12-04 06:08:49 8.1 -7.2 49 89 60 g 0
2021-12-04 06:39:02 8.9 -7.4 50 89 55 g 0
2021-12-04 07:09:14 9.1 -7.7 51 88 52 t
1
2021-12-04 07:39:26 8.5 -8.0 48 88 55 g 0
2021-12-04 08:09:38 9.3 -8.2 49 88 51 g 0
2021-12-04 08:39:50 9.4 -8.3 50 88 49 g 0
2021-12-04 09:10:02 9.3 -8.2 51 89 49 t
1
2021-12-04 09:40:19 8.7 -8.0 48 89 55 g 0
2021-12-04 10:10:33 9.4 -7.3 49 89 55 g 0
2021-12-04 10:40:45 9.4 -6.4 50 90 59 g 0
2021-12-04 11:10:58 9.5 -5.6 50 90 61 t
1
2021-12-04 11:41:10 9.2 -4.9 48 91 70 g 0
2021-12-04 12:11:22 10.1 -4.1 48 91 70 g 0
2021-12-04 12:41:34 10.3 -3.5 48 91 72 g 0
2021-12-04 13:11:46 10.5 -3.1 49 91 74 g 0
2021-12-04 13:41:58 10.5 -3.4 49 90 70 g 0
2021-12-04 14:12:10 10.4 -3.8 49 89 67 g 0
2021-12-04 14:42:22 9.1 -4.3 39 89 89 g 0
2021-12-04 15:12:34 12.4 -4.8 39 89 69 g 0
2021-12-04 15:42:46 12.0 -5.3 42 89 63 g 0
2021-12-04 16:12:58 11.5 -5.7 45 89 60 g 0
2021-12-04 16:43:11 11.0 -6.0 46 90 59 g 0
2021-12-04 17:13:23 10.3 -6.0 48 90 59 g 0
2021-12-04 17:43:35 9.9 -5.9 49 91 61 g 0
2021-12-04 18:13:47 9.7 -5.8 50 91 61 t
1
2021-12-04 18:43:59 9.2 -5.9 48 90 65 g 0
2021-12-04 19:14:11 9.4 -6.1 49 90 60 g 0
2021-12-04 19:44:23 9.4 -6.0 50 91 61 g 0
2021-12-04 20:14:35 9.5 -5.7 50 91 62 g 0
2021-12-04 20:44:47 9.7 -5.6 50 91 62 t
1
2021-12-04 21:14:59 9.0 -5.4 48 91 68 g 0
2021-12-04 21:45:25 10.2 -5.2 47 91 65 g 0
2021-12-04 22:15:37 10.4 -4.9 48 90 65 g 0
2021-12-04 22:45:49 10.5 -4.6 48 90 66 g 0
2021-12-04 23:16:01 10.5 -4.3 48 90 67 g 0
2021-12-04 23:46:13 10.6 -4.1 48 91 68 g 0
2021-12-05 00:03:18 10.5 -3.9 48 91 69 g 0
2021-12-05 00:33:39 10.7 -3.6 48 91 71 g 0
2021-12-05 01:03:51 10.6 -3.6 48 89 69 g 0
2021-12-05 01:34:22 10.6 -3.7 48 88 68 g 0
2021-12-05 02:04:34 10.6 -3.8 49 88 67 g 0
2021-12-05 02:34:46 10.7 -4.1 48 87 65 g 0
2021-12-05 03:04:58 10.6 -4.3 48 87 64 g 0
2021-12-05 03:35:11 10.7 -4.5 48 87 63 g 0
2021-12-05 04:05:23 10.5 -4.6 49 87 62 g 0
2021-12-05 04:35:35 11.1 -4.7 48 87 61 g 0


2021-12-05 05:33:44 CET